Ana Sayfa
METAR-TAF:

METAR-TAF

Havaalanları :

Ciudad Juarez, Meksika

Enlem: 31-38N, Boylam: 106-26W, yükseklik: 1171 m

Güncel hava durumu gözlemi

Rapor saat 02:40 UTC de 45 dakika önce yapıldı.
Sakin rüzgar
Sıcaklık 13°C
Nem 51%
Basınç 1026 hPa
Görüş mesafesi: 16.1 km
Açık gökyüzü

METAR: MMCS 070240Z 00000KT 10SM SKC 13/03 A3031 RMK SLP223 52010 940 CI

Saat: 20:25 (03:25 UTC)

Tahmin

Rapor saat 17:02 UTC de 10 saat ve 23 dakika önce yapıldı.
Ayın 06'si saat 18 UTC'den ayın 07'si saat 18 UTC'ye kadar geçerli Tahmin
Rüzgar doğudan 15 kt
Görüş mesafesi: 10 km
25000 ft yükseklikte parçalı çok bulutlu
Dönüşüyor
ayın 07'si saat 01 UTC'den ayın 07'si saat 02 UTC'ye kadar
Rüzgar kuzeydan kt
Ayın 07'si saat 1600 UTC'den
Rüzgar güneybatıdan 10 kt
Görüş mesafesi: 10 km
25000 ft yükseklikte parçalı bulutlu

TAF: MMCS 061702Z 0618/0718 10015KT P6SM BKN250 BECMG 0701/0702 00000KT FM071600 23010KT P6SM SCT250

4.000'den fazla havaalanı için hava durumu gözlemleri ve tahminleri (METAR ve TAF raporları).

Kullanılabilir istasyonlar harita üzerinde sarı ve kırmızı noktalarla gösterilir.

İstasyonun adını görmek için fareyi noktanın üzerinde gezdirin.

Sonrasında hava gözlem ve tahminlerini görmek için tıklayın.

Haritayı değiştirmek için: yaklaştırmak için siyah artı işaretli yeşil düğmeye ve uzaklaştırmak için de eksi işaretli düğmeye hızla tıklayın; bitişik haritalar için yeşil okları kullanın.


METAR-TAF: